Time;durP1;ratioP1;P1;durP2;ratioP2;P2;SDS_P1;SDS_P2;PMS_P1;PMS_P2;Temp;Humidity;BMP_temperature;BMP_pressure;BME280_temperature;BME280_humidity;BME280_pressure;Samples;Min_cycle;Max_cycle;Signal;HPM_P1;HPM_P2
2023/04/15 00:01:57;;;;;;;6.88;3.40;;;4.80;61.60;;;;;;5093367;28;20020;-74
2023/04/15 00:04:22;;;;;;;7.72;3.60;;;4.70;61.90;;;;;;5092994;28;20027;-74
2023/04/15 00:06:52;;;;;;;10.45;3.38;;;4.70;61.90;;;;;;5093315;28;20024;-74
2023/04/15 00:09:18;;;;;;;7.63;3.78;;;4.60;62.40;;;;;;5091905;28;20028;-74
2023/04/15 00:11:45;;;;;;;5.30;3.60;;;4.50;63.00;;;;;;5093274;28;20022;-74
2023/04/15 00:14:11;;;;;;;8.27;3.78;;;4.40;63.40;;;;;;5092987;28;20101;-74
2023/04/15 00:16:37;;;;;;;8.00;3.72;;;4.40;63.40;;;;;;5093189;28;20027;-74
2023/04/15 00:19:02;;;;;;;8.23;3.63;;;4.40;63.80;;;;;;5093080;28;20020;-74
2023/04/15 00:21:28;;;;;;;8.75;3.20;;;4.50;64.10;;;;;;5092968;28;20391;-74
2023/04/15 00:23:54;;;;;;;6.47;3.38;;;4.40;64.00;;;;;;5093203;28;20375;-74
2023/04/15 00:26:19;;;;;;;7.78;3.05;;;4.40;64.10;;;;;;5091800;28;20081;-74
2023/04/15 00:28:45;;;;;;;8.05;3.58;;;4.50;64.20;;;;;;5093107;28;20092;-74
2023/04/15 00:31:11;;;;;;;8.23;3.70;;;4.50;64.30;;;;;;5093004;28;20028;-74
2023/04/15 00:33:37;;;;;;;10.30;3.40;;;4.40;64.20;;;;;;5093103;28;20129;-74
2023/04/15 00:36:04;;;;;;;14.23;3.83;;;4.50;64.20;;;;;;5093108;28;20138;-74
2023/04/15 00:38:30;;;;;;;7.70;2.97;;;4.40;64.10;;;;;;5093917;28;20111;-75
2023/04/15 00:40:56;;;;;;;6.70;3.33;;;4.40;64.20;;;;;;5094932;28;20051;-74
2023/04/15 00:43:21;;;;;;;8.48;3.00;;;4.50;64.20;;;;;;5093616;28;20443;-74
2023/04/15 00:45:47;;;;;;;7.25;3.30;;;4.60;63.90;;;;;;5095184;28;20062;-74
2023/04/15 00:48:13;;;;;;;5.28;2.75;;;4.60;63.70;;;;;;5094445;28;20028;-73
2023/04/15 00:50:38;;;;;;;6.32;3.42;;;4.50;64.00;;;;;;5094966;28;20109;-73
2023/04/15 00:53:04;;;;;;;5.82;2.50;;;4.50;64.30;;;;;;5098796;28;20020;-73
2023/04/15 00:55:30;;;;;;;6.95;2.67;;;4.50;64.20;;;;;;5094562;28;20099;-73
2023/04/15 00:57:56;;;;;;;9.98;3.13;;;4.50;64.80;;;;;;5100539;28;20418;-74
2023/04/15 01:00:22;;;;;;;8.20;2.95;;;4.40;64.70;;;;;;5107720;28;20021;-73
2023/04/15 01:02:49;;;;;;;6.50;2.90;;;4.40;65.00;;;;;;5107780;28;20073;-74
2023/04/15 01:05:17;;;;;;;9.45;2.47;;;4.50;65.10;;;;;;5106583;28;20016;-73
2023/04/15 01:07:43;;;;;;;9.68;3.00;;;4.50;65.20;;;;;;5106914;28;20032;-73
2023/04/15 01:10:08;;;;;;;8.35;2.78;;;4.50;65.10;;;;;;5104553;28;20036;-73
2023/04/15 01:12:35;;;;;;;12.05;2.70;;;4.50;65.00;;;;;;5103382;28;20024;-73
2023/04/15 01:15:01;;;;;;;7.60;2.97;;;4.50;65.20;;;;;;5100076;28;20446;-72
2023/04/15 01:17:27;;;;;;;9.90;3.13;;;4.50;65.30;;;;;;5092744;28;20103;-72
2023/04/15 01:19:55;;;;;;;6.63;2.85;;;4.50;65.30;;;;;;5092617;28;20054;-73
2023/04/15 01:22:21;;;;;;;10.57;3.15;;;4.40;65.90;;;;;;5092899;28;20372;-73
2023/04/15 01:24:58;;;;;;;4.35;2.63;;;4.40;66.10;;;;;;5092752;28;20380;-72
2023/04/15 01:27:24;;;;;;;7.15;2.83;;;4.40;66.20;;;;;;5092611;28;20046;-73
2023/04/15 01:29:49;;;;;;;9.07;3.33;;;4.50;66.30;;;;;;5092518;28;20110;-73
2023/04/15 01:32:15;;;;;;;6.82;2.88;;;4.40;66.40;;;;;;5092726;28;20101;-74
2023/04/15 01:34:41;;;;;;;10.30;3.28;;;4.40;66.80;;;;;;5092328;28;20055;-74
2023/04/15 01:37:06;;;;;;;10.15;3.33;;;4.40;66.70;;;;;;5093967;28;20023;-73
2023/04/15 01:39:32;;;;;;;8.48;3.78;;;4.40;66.80;;;;;;5096034;28;20495;-75
2023/04/15 01:41:58;;;;;;;6.70;3.00;;;4.40;66.50;;;;;;5096297;28;20312;-73
2023/04/15 01:44:23;;;;;;;9.25;3.55;;;4.40;66.50;;;;;;5096351;28;20028;-75
2023/04/15 01:46:49;;;;;;;8.85;3.63;;;4.40;66.60;;;;;;5095980;28;20504;-75
2023/04/15 01:49:14;;;;;;;8.98;3.72;;;4.40;67.00;;;;;;5095791;28;20071;-75
2023/04/15 01:51:40;;;;;;;12.43;3.78;;;4.30;67.20;;;;;;5094436;28;20023;-73
2023/04/15 01:54:05;;;;;;;7.15;3.13;;;4.20;67.70;;;;;;5095780;28;20032;-74
2023/04/15 01:56:32;;;;;;;11.27;3.25;;;4.10;68.20;;;;;;5095720;28;20046;-73
2023/04/15 01:58:57;;;;;;;6.47;2.90;;;4.10;68.60;;;;;;5095411;28;20027;-73
2023/04/15 02:01:23;;;;;;;8.07;3.45;;;4.10;68.80;;;;;;5095678;28;20020;-73
2023/04/15 02:03:49;;;;;;;9.00;3.55;;;4.10;69.00;;;;;;5095879;28;20353;-72
2023/04/15 02:06:14;;;;;;;7.78;3.28;;;4.00;69.10;;;;;;5095554;28;20107;-73
2023/04/15 02:08:40;;;;;;;7.30;3.25;;;4.10;69.20;;;;;;5094187;28;20100;-73
2023/04/15 02:11:05;;;;;;;8.40;3.38;;;4.00;69.50;;;;;;5095505;28;20032;-73
2023/04/15 02:13:31;;;;;;;7.68;3.15;;;4.10;69.70;;;;;;5095515;28;20020;-74
2023/04/15 02:15:58;;;;;;;10.73;3.20;;;4.10;69.50;;;;;;5095461;28;20024;-73
2023/04/15 02:18:23;;;;;;;5.82;2.97;;;4.10;69.50;;;;;;5095397;28;20020;-73
2023/04/15 02:20:51;;;;;;;9.13;3.05;;;4.00;69.70;;;;;;5095367;28;20032;-73
2023/04/15 02:23:16;;;;;;;10.10;3.33;;;4.00;69.90;;;;;;5095272;28;20012;-73
2023/04/15 02:25:42;;;;;;;7.03;3.10;;;3.90;70.30;;;;;;5093894;28;20028;-73
2023/04/15 02:28:07;;;;;;;7.90;3.22;;;3.90;70.80;;;;;;5095237;28;20434;-74
2023/04/15 02:30:33;;;;;;;8.48;3.30;;;3.90;70.90;;;;;;5095018;28;20065;-73
2023/04/15 02:33:00;;;;;;;8.93;3.30;;;3.90;70.80;;;;;;5095209;28;20027;-73
2023/04/15 02:35:26;;;;;;;10.52;3.50;;;3.80;70.80;;;;;;5094838;28;20051;-73
2023/04/15 02:37:52;;;;;;;6.65;3.00;;;3.80;71.00;;;;;;5095069;28;20099;-73
2023/04/15 02:40:18;;;;;;;5.68;2.85;;;3.70;71.30;;;;;;5095098;28;20518;-73
2023/04/15 02:42:43;;;;;;;6.40;2.60;;;3.60;71.50;;;;;;5094563;28;20112;-73
2023/04/15 02:45:11;;;;;;;9.70;3.08;;;3.60;71.60;;;;;;5094892;28;20039;-73
2023/04/15 02:47:38;;;;;;;7.70;3.47;;;3.40;71.20;;;;;;5094241;28;20016;-73
2023/04/15 02:50:05;;;;;;;6.78;3.15;;;3.40;71.40;;;;;;5094081;28;20038;-73
2023/04/15 02:52:31;;;;;;;6.25;3.25;;;3.30;71.30;;;;;;5094719;28;20091;-73
2023/04/15 02:54:59;;;;;;;7.68;3.28;;;3.40;71.30;;;;;;5093351;28;20098;-73
2023/04/15 02:57:27;;;;;;;7.65;2.67;;;3.50;71.10;;;;;;5094555;28;20020;-73
2023/04/15 02:59:52;;;;;;;7.50;3.17;;;3.50;70.70;;;;;;5094466;28;20024;-73
2023/04/15 03:02:18;;;;;;;6.05;2.40;;;3.60;70.30;;;;;;5094452;28;20028;-73
2023/04/15 03:04:43;;;;;;;6.35;2.70;;;3.70;70.00;;;;;;5094585;28;20028;-73
2023/04/15 03:07:09;;;;;;;4.22;2.50;;;3.80;69.70;;;;;;5094313;28;20016;-73
2023/04/15 03:09:35;;;;;;;5.80;2.97;;;3.90;69.30;;;;;;5094136;28;20511;-74
2023/04/15 03:12:01;;;;;;;9.65;3.42;;;4.00;69.00;;;;;;5094356;28;20070;-73
2023/04/15 03:14:26;;;;;;;4.70;2.80;;;4.10;68.70;;;;;;5094310;28;20027;-74
2023/04/15 03:16:52;;;;;;;6.13;3.40;;;4.10;68.60;;;;;;5094149;28;20020;-74
2023/04/15 03:19:18;;;;;;;6.72;3.08;;;4.00;68.50;;;;;;5094269;28;20016;-73
2023/04/15 03:21:43;;;;;;;8.05;3.00;;;4.10;68.80;;;;;;5094136;28;20028;-73
2023/04/15 03:24:09;;;;;;;7.03;2.28;;;4.10;69.00;;;;;;5094028;28;20024;-73
2023/04/15 03:26:34;;;;;;;6.05;2.67;;;4.10;69.10;;;;;;5094005;28;20069;-73
2023/04/15 03:29:00;;;;;;;7.43;3.10;;;4.20;69.20;;;;;;5088890;28;20404;-73
2023/04/15 03:31:25;;;;;;;9.32;3.10;;;4.10;69.30;;;;;;5073665;28;20035;-73
2023/04/15 03:33:51;;;;;;;9.10;2.97;;;4.10;69.60;;;;;;5072334;28;20032;-73
2023/04/15 03:36:16;;;;;;;11.20;2.78;;;4.10;69.50;;;;;;5073381;28;20091;-73
2023/04/15 03:38:42;;;;;;;5.53;2.55;;;4.10;69.70;;;;;;5073537;28;20020;-73
2023/04/15 03:41:08;;;;;;;7.47;3.47;;;4.00;70.30;;;;;;5073534;28;20037;-73
2023/04/15 03:43:34;;;;;;;10.27;2.90;;;3.90;70.50;;;;;;5073544;28;20147;-73
2023/04/15 03:46:00;;;;;;;6.72;2.97;;;3.90;70.90;;;;;;5073464;28;20111;-74
2023/04/15 03:48:25;;;;;;;7.05;2.78;;;3.90;71.10;;;;;;5072928;28;20032;-74
2023/04/15 03:50:51;;;;;;;9.65;3.00;;;3.80;72.10;;;;;;5071911;28;20029;-73
2023/04/15 03:53:16;;;;;;;10.02;3.35;;;3.80;71.60;;;;;;5073068;28;20027;-73
2023/04/15 03:55:42;;;;;;;5.22;2.83;;;3.80;71.70;;;;;;5072983;28;20051;-73
2023/04/15 03:58:11;;;;;;;7.38;3.05;;;3.80;71.80;;;;;;5073352;28;20036;-73
2023/04/15 04:00:37;;;;;;;9.23;2.85;;;3.80;72.40;;;;;;5073041;28;20144;-73
2023/04/15 04:03:03;;;;;;;10.32;3.60;;;3.70;72.20;;;;;;5073182;28;20057;-73
2023/04/15 04:05:29;;;;;;;8.77;3.30;;;3.60;72.30;;;;;;5073302;28;20028;-72
2023/04/15 04:07:54;;;;;;;9.85;3.70;;;3.60;72.40;;;;;;5073303;28;20024;-73
2023/04/15 04:10:20;;;;;;;8.40;3.63;;;3.40;72.30;;;;;;5073135;28;20116;-73
2023/04/15 04:12:45;;;;;;;10.60;3.80;;;3.10;72.70;;;;;;5073251;28;20108;-73
2023/04/15 04:15:11;;;;;;;8.35;3.60;;;2.90;72.40;;;;;;5073163;28;20052;-73
2023/04/15 04:17:37;;;;;;;8.25;3.30;;;2.80;72.50;;;;;;5073262;28;20071;-73
2023/04/15 04:20:02;;;;;;;10.82;3.78;;;2.80;72.90;;;;;;5073061;28;20055;-73
2023/04/15 04:22:28;;;;;;;9.02;4.05;;;2.80;73.10;;;;;;5073097;28;20103;-73
2023/04/15 04:24:53;;;;;;;13.63;4.65;;;2.90;73.20;;;;;;5071689;28;20021;-74
2023/04/15 04:27:19;;;;;;;8.23;4.45;;;3.00;72.80;;;;;;5072922;28;20031;-74
2023/04/15 04:29:46;;;;;;;11.73;4.43;;;3.10;72.50;;;;;;5072776;28;20033;-73
2023/04/15 04:32:12;;;;;;;11.27;4.95;;;3.20;72.00;;;;;;5073020;28;20091;-73
2023/04/15 04:34:37;;;;;;;8.65;4.32;;;3.30;71.80;;;;;;5072697;28;20183;-73
2023/04/15 04:37:03;;;;;;;8.00;3.35;;;3.30;71.70;;;;;;5072872;28;20061;-72
2023/04/15 04:39:28;;;;;;;12.23;3.08;;;3.30;72.70;;;;;;5072759;28;20032;-74
2023/04/15 04:41:54;;;;;;;7.20;3.20;;;3.30;73.40;;;;;;5071658;28;20028;-74
2023/04/15 04:44:21;;;;;;;7.80;3.42;;;3.30;73.80;;;;;;5072818;28;20024;-75
2023/04/15 04:46:46;;;;;;;5.65;3.47;;;3.40;73.50;;;;;;5072846;28;20023;-74
2023/04/15 04:49:12;;;;;;;9.15;3.45;;;3.40;73.60;;;;;;5072555;28;20119;-74
2023/04/15 04:51:37;;;;;;;11.35;3.10;;;3.40;73.30;;;;;;5072632;28;20028;-74
2023/04/15 04:54:03;;;;;;;10.75;3.55;;;3.40;73.60;;;;;;5072651;28;20035;-74
2023/04/15 04:56:28;;;;;;;9.60;3.40;;;3.50;73.40;;;;;;5072666;28;20036;-74
2023/04/15 04:58:54;;;;;;;13.02;4.28;;;3.50;73.50;;;;;;5072561;28;20024;-74
2023/04/15 05:01:20;;;;;;;8.45;3.50;;;3.50;73.80;;;;;;5072710;28;20025;-74
2023/04/15 05:03:45;;;;;;;9.40;4.20;;;3.50;73.90;;;;;;5072627;28;20028;-74
2023/04/15 05:06:11;;;;;;;9.02;3.75;;;3.50;73.90;;;;;;5072653;28;20074;-74
2023/04/15 05:08:36;;;;;;;11.07;3.60;;;3.50;73.80;;;;;;5072510;28;20358;-74
2023/04/15 05:11:02;;;;;;;9.55;4.00;;;3.60;73.50;;;;;;5071300;28;20036;-74
2023/04/15 05:13:28;;;;;;;9.95;3.67;;;3.70;73.40;;;;;;5076122;28;20094;-74
2023/04/15 05:15:54;;;;;;;10.70;3.53;;;3.80;72.90;;;;;;5075015;28;20420;-74
2023/04/15 05:18:20;;;;;;;8.38;3.25;;;3.90;72.70;;;;;;5076207;28;20166;-74
2023/04/15 05:20:46;;;;;;;10.93;3.80;;;4.00;72.50;;;;;;5076269;28;20031;-74
2023/04/15 05:23:11;;;;;;;8.50;3.22;;;4.10;72.30;;;;;;5076103;28;20035;-74
2023/04/15 05:25:37;;;;;;;6.85;3.15;;;4.10;72.30;;;;;;5076119;28;20021;-74
2023/04/15 05:28:02;;;;;;;9.77;3.38;;;4.10;72.00;;;;;;5076089;28;20056;-73
2023/04/15 05:30:28;;;;;;;9.95;3.40;;;4.20;72.00;;;;;;5076112;28;20053;-74
2023/04/15 05:32:54;;;;;;;7.03;2.60;;;4.10;72.40;;;;;;5075849;28;20025;-74
2023/04/15 05:35:19;;;;;;;6.75;2.72;;;4.20;72.00;;;;;;5075300;28;20083;-74
2023/04/15 05:37:45;;;;;;;9.18;3.50;;;4.30;71.90;;;;;;5075676;28;20035;-73
2023/04/15 05:40:11;;;;;;;8.68;3.70;;;4.30;71.60;;;;;;5075831;28;20082;-74
2023/04/15 05:42:36;;;;;;;10.95;4.30;;;4.40;71.20;;;;;;5075310;28;20017;-73
2023/04/15 05:45:04;;;;;;;9.40;4.65;;;4.40;71.30;;;;;;5074232;28;20071;-73
2023/04/15 05:47:30;;;;;;;7.47;3.58;;;4.60;71.10;;;;;;5075547;28;20067;-73
2023/04/15 05:49:57;;;;;;;9.80;3.28;;;4.70;70.60;;;;;;5075495;28;20033;-73
2023/04/15 05:52:23;;;;;;;8.63;3.92;;;4.90;70.20;;;;;;5075471;28;20017;-74
2023/04/15 05:54:49;;;;;;;7.90;3.30;;;5.00;69.60;;;;;;5075501;28;20032;-73
2023/04/15 05:57:15;;;;;;;11.73;3.63;;;5.20;69.20;;;;;;5075682;28;20103;-73
2023/04/15 05:59:41;;;;;;;12.20;3.97;;;5.30;68.30;;;;;;5075314;28;20024;-73
2023/04/15 06:02:09;;;;;;;10.38;3.90;;;5.40;67.90;;;;;;5075529;28;20012;-78
2023/04/15 06:04:34;;;;;;;9.13;3.55;;;5.60;67.40;;;;;;5075543;28;20095;-78
2023/04/15 06:07:00;;;;;;;6.32;3.22;;;5.80;66.80;;;;;;5075110;28;20020;-77
2023/04/15 06:09:25;;;;;;;8.10;3.58;;;5.90;65.90;;;;;;5075291;28;20465;-79
2023/04/15 06:11:52;;;;;;;8.95;3.38;;;6.10;66.70;;;;;;5075067;28;20435;-76
2023/04/15 06:14:17;;;;;;;6.88;3.17;;;6.30;65.40;;;;;;5073935;28;20025;-73
2023/04/15 06:16:43;;;;;;;8.30;3.47;;;6.40;65.30;;;;;;5075098;28;20036;-72
2023/04/15 06:19:08;;;;;;;8.75;3.30;;;6.50;64.50;;;;;;5075095;28;20029;-73
2023/04/15 06:21:34;;;;;;;6.97;3.53;;;6.70;64.20;;;;;;5075033;28;20029;-82
2023/04/15 06:24:00;;;;;;;9.20;2.95;;;6.80;63.40;;;;;;5074774;28;20094;-80
2023/04/15 06:26:26;;;;;;;9.27;3.38;;;6.90;63.20;;;;;;5074870;28;20028;-73
2023/04/15 06:28:51;;;;;;;11.15;3.40;;;7.00;62.30;;;;;;5074582;28;20380;-73
2023/04/15 06:31:17;;;;;;;9.68;3.55;;;7.10;61.90;;;;;;5074744;28;20033;-73
2023/04/15 06:33:42;;;;;;;9.60;3.30;;;7.10;61.80;;;;;;5074733;28;20028;-73
2023/04/15 06:36:08;;;;;;;9.77;3.60;;;7.10;61.40;;;;;;5072992;28;20550;-73
2023/04/15 06:38:33;;;;;;;10.32;3.00;;;7.20;61.60;;;;;;5074612;28;20056;-76
2023/04/15 06:40:59;;;;;;;7.70;3.25;;;7.20;61.70;;;;;;5074511;28;20032;-73
2023/04/15 06:43:25;;;;;;;16.30;6.43;;;7.20;61.70;;;;;;5074318;28;20464;-73
2023/04/15 06:45:51;;;;;;;14.60;6.53;;;7.20;61.50;;;;;;5074579;28;20024;-80
2023/04/15 06:48:16;;;;;;;7.47;3.90;;;7.40;61.90;;;;;;5074346;28;20036;-79
2023/04/15 06:50:42;;;;;;;15.48;4.32;;;7.50;62.50;;;;;;5074137;28;20111;-73
2023/04/15 06:53:08;;;;;;;19.08;4.93;;;7.70;63.30;;;;;;5074142;28;20100;-74
2023/04/15 06:55:33;;;;;;;16.60;5.15;;;8.00;67.80;;;;;;5074132;28;20021;-74
2023/04/15 06:57:59;;;;;;;10.43;4.47;;;8.20;67.10;;;;;;5074086;28;20020;-74
2023/04/15 07:00:25;;;;;;;15.32;5.07;;;8.50;64.50;;;;;;5074074;28;20021;-76
2023/04/15 07:02:50;;;;;;;15.52;4.50;;;8.70;62.00;;;;;;5073665;28;20028;-77
2023/04/15 07:05:16;;;;;;;14.40;4.90;;;8.90;60.00;;;;;;5073837;28;20032;-75
2023/04/15 07:07:42;;;;;;;9.23;4.30;;;9.10;61.70;;;;;;5074912;28;20031;-76
2023/04/15 07:10:08;;;;;;;12.60;3.97;;;9.30;59.90;;;;;;5073631;28;20036;-74
2023/04/15 07:12:34;;;;;;;8.35;4.15;;;9.50;58.80;;;;;;5073513;28;20391;-72
2023/04/15 07:15:00;;;;;;;10.93;4.10;;;9.70;57.70;;;;;;5073764;28;20031;-73
2023/04/15 07:17:26;;;;;;;9.57;3.90;;;9.70;57.10;;;;;;5073532;28;20028;-75
2023/04/15 07:19:51;;;;;;;10.98;3.72;;;9.80;55.40;;;;;;5073926;28;20488;-75
2023/04/15 07:22:17;;;;;;;8.07;3.95;;;9.90;56.40;;;;;;5073396;28;20587;-76
2023/04/15 07:24:42;;;;;;;8.85;3.75;;;9.90;55.10;;;;;;5073729;28;20031;-76
2023/04/15 07:27:08;;;;;;;11.48;3.42;;;9.70;55.60;;;;;;5073466;28;20028;-75
2023/04/15 07:29:33;;;;;;;5.55;2.95;;;9.60;56.50;;;;;;5073577;28;20060;-76
2023/04/15 07:31:59;;;;;;;9.80;3.22;;;9.60;56.00;;;;;;5072990;28;20405;-74
2023/04/15 07:34:24;;;;;;;7.28;3.38;;;9.70;55.90;;;;;;5072082;28;20040;-76
2023/04/15 07:36:50;;;;;;;7.53;3.60;;;9.80;55.70;;;;;;5073442;28;20060;-75
2023/04/15 07:39:17;;;;;;;10.65;3.80;;;9.80;55.10;;;;;;5073257;28;20028;-76
2023/04/15 07:41:43;;;;;;;8.85;3.97;;;9.70;55.20;;;;;;5073137;28;20024;-75
2023/04/15 07:44:08;;;;;;;25.08;11.80;;;9.80;55.70;;;;;;5073209;28;20027;-75
2023/04/15 07:46:34;;;;;;;11.35;4.40;;;9.80;56.00;;;;;;5073165;28;20428;-73
2023/04/15 07:49:00;;;;;;;10.38;3.95;;;9.80;55.20;;;;;;5073101;28;20431;-73
2023/04/15 07:51:25;;;;;;;8.57;3.65;;;9.70;55.00;;;;;;5073079;28;20056;-74
2023/04/15 07:53:51;;;;;;;9.63;4.28;;;9.70;55.10;;;;;;5073209;28;20025;-73
2023/04/15 07:56:17;;;;;;;9.85;4.53;;;9.80;55.20;;;;;;5073147;28;20017;-73
2023/04/15 07:58:42;;;;;;;9.02;3.63;;;9.80;55.30;;;;;;5073325;28;20352;-75
2023/04/15 08:01:08;;;;;;;11.48;4.22;;;10.00;55.60;;;;;;5071570;28;20032;-74
2023/04/15 08:03:34;;;;;;;8.10;3.60;;;10.10;54.30;;;;;;5072999;28;20024;-73
2023/04/15 08:06:00;;;;;;;10.60;3.72;;;10.10;54.60;;;;;;5072973;28;20025;-75
2023/04/15 08:08:26;;;;;;;8.77;4.22;;;10.30;54.20;;;;;;5073029;28;20373;-74
2023/04/15 08:10:51;;;;;;;13.52;4.43;;;10.40;54.50;;;;;;5073367;28;20044;-74
2023/04/15 08:13:17;;;;;;;6.38;3.67;;;10.50;54.30;;;;;;5081440;28;20012;-74
2023/04/15 08:15:43;;;;;;;13.00;3.97;;;10.70;53.80;;;;;;5082427;28;20039;-74
2023/04/15 08:18:09;;;;;;;8.80;3.63;;;10.80;53.30;;;;;;5078587;28;20024;-74
2023/04/15 08:20:34;;;;;;;9.63;3.83;;;10.90;53.50;;;;;;5072689;28;20024;-74
2023/04/15 08:23:00;;;;;;;7.82;3.40;;;11.10;53.70;;;;;;5079794;28;20090;-74
2023/04/15 08:25:26;;;;;;;9.82;3.47;;;11.20;51.50;;;;;;5080075;28;20104;-74
2023/04/15 08:27:54;;;;;;;5.88;2.80;;;11.30;50.40;;;;;;5081664;28;20046;-74
2023/04/15 08:30:20;;;;;;;8.30;2.50;;;11.40;49.20;;;;;;5081281;28;20036;-74
2023/04/15 08:32:46;;;;;;;6.47;2.30;;;11.50;48.00;;;;;;5082902;28;20024;-74
2023/04/15 08:35:12;;;;;;;10.52;2.90;;;11.50;48.80;;;;;;5077347;28;20055;-73
2023/04/15 08:37:38;;;;;;;7.40;2.60;;;11.50;50.50;;;;;;5083196;28;20059;-74
2023/04/15 08:40:04;;;;;;;9.25;2.88;;;11.70;49.80;;;;;;5082611;28;20020;-74
2023/04/15 08:42:40;;;;;;;5.85;2.08;;;11.80;49.40;;;;;;5081486;28;20024;-74
2023/04/15 08:45:07;;;;;;;;;;;11.90;49.20;;;;;;5082480;28;20024;-75
2023/04/15 08:47:37;;;;;;;6.07;2.20;;;12.10;48.80;;;;;;5092733;28;19904;-75
2023/04/15 08:50:03;;;;;;;7.90;2.15;;;12.30;45.80;;;;;;5094155;28;20429;-74
2023/04/15 08:52:30;;;;;;;7.57;2.33;;;12.20;44.00;;;;;;5086827;28;20043;-75
2023/04/15 08:54:59;;;;;;;8.05;1.90;;;12.30;44.20;;;;;;5073515;28;20036;-73
2023/04/15 08:57:28;;;;;;;5.63;2.03;;;12.30;43.80;;;;;;5087941;28;20085;-73
2023/04/15 08:59:57;;;;;;;7.63;2.03;;;12.30;44.40;;;;;;5081060;28;20052;-74
2023/04/15 09:02:26;;;;;;;9.70;1.90;;;12.40;42.60;;;;;;5075889;28;20032;-74
2023/04/15 09:04:52;;;;;;;6.30;1.90;;;12.30;41.70;;;;;;5076046;28;20028;-74
2023/04/15 09:07:17;;;;;;;5.07;1.70;;;12.20;43.50;;;;;;5076273;28;20430;-74
2023/04/15 09:09:43;;;;;;;8.07;2.30;;;12.30;43.90;;;;;;5076000;28;20036;-73
2023/04/15 09:12:10;;;;;;;9.40;3.45;;;12.50;44.00;;;;;;5076031;28;20020;-75
2023/04/15 09:14:38;;;;;;;5.97;2.13;;;12.60;43.50;;;;;;5074619;28;20051;-75
2023/04/15 09:17:04;;;;;;;9.23;3.65;;;12.70;43.20;;;;;;5075907;28;20028;-74
2023/04/15 09:19:32;;;;;;;8.95;2.42;;;12.80;43.70;;;;;;5074638;28;20032;-74
2023/04/15 09:21:58;;;;;;;5.13;2.08;;;13.00;42.70;;;;;;5075705;28;20012;-75
2023/04/15 09:24:25;;;;;;;7.70;2.58;;;13.00;43.60;;;;;;5075516;28;20087;-73
2023/04/15 09:26:55;;;;;;;5.10;2.10;;;13.10;43.40;;;;;;5075646;28;20465;-74
2023/04/15 09:29:24;;;;;;;7.38;2.20;;;13.30;43.60;;;;;;5075182;28;20093;-73
2023/04/15 09:31:50;;;;;;;6.90;2.05;;;13.40;42.80;;;;;;5075495;28;20486;-75
2023/04/15 09:34:16;;;;;;;5.15;1.80;;;13.60;41.30;;;;;;5075282;28;20032;-74
2023/04/15 09:36:50;;;;;;;8.02;2.00;;;13.60;41.30;;;;;;5075646;28;20163;-74
2023/04/15 09:39:16;;;;;;;10.77;1.50;;;13.60;41.10;;;;;;5075182;28;20025;-74
2023/04/15 09:41:43;;;;;;;6.95;1.90;;;13.60;39.80;;;;;;5075081;28;20048;-75
2023/04/15 09:44:25;;;;;;;6.28;2.25;;;13.50;39.00;;;;;;5075315;28;20099;-74
2023/04/15 09:46:51;;;;;;;3.88;1.60;;;13.50;39.00;;;;;;5075353;28;20100;-75
2023/04/15 09:49:16;;;;;;;5.60;1.70;;;13.70;39.60;;;;;;5074879;28;20104;-75
2023/04/15 09:51:43;;;;;;;11.07;2.38;;;13.80;39.50;;;;;;5075035;28;20093;-74
2023/04/15 09:54:09;;;;;;;11.30;1.80;;;13.80;38.50;;;;;;5075058;28;20016;-74
2023/04/15 09:56:41;;;;;;;7.13;1.77;;;13.90;37.30;;;;;;5075149;28;20102;-73
2023/04/15 09:59:07;;;;;;;5.80;2.00;;;13.90;37.40;;;;;;5082360;28;20034;-74
2023/04/15 10:01:33;;;;;;;5.50;1.90;;;13.90;37.20;;;;;;5083891;28;20096;-73
2023/04/15 10:04:03;;;;;;;8.60;1.90;;;13.90;37.40;;;;;;5084709;28;20059;-73
2023/04/15 10:06:29;;;;;;;7.15;1.90;;;13.90;37.40;;;;;;5079380;28;20400;-74
2023/04/15 10:08:56;;;;;;;4.55;1.80;;;13.80;37.40;;;;;;5082810;28;20024;-72
2023/04/15 10:11:23;;;;;;;7.80;1.50;;;13.80;35.80;;;;;;5081932;28;20115;-73
2023/04/15 10:13:50;;;;;;;7.45;2.92;;;13.60;35.30;;;;;;5084434;28;20055;-72
2023/04/15 10:16:19;;;;;;;8.30;2.22;;;13.70;36.10;;;;;;5085858;28;20020;-72
2023/04/15 10:18:47;;;;;;;9.02;2.97;;;13.90;35.00;;;;;;5074670;28;20027;-74
2023/04/15 10:21:17;;;;;;;7.38;1.90;;;14.10;35.20;;;;;;5077022;28;20559;-72
2023/04/15 10:23:46;;;;;;;6.80;1.38;;;14.20;34.10;;;;;;5084375;28;20140;-74
2023/04/15 10:26:13;;;;;;;7.05;1.40;;;14.20;32.90;;;;;;5083501;28;20024;-74
2023/04/15 10:28:39;;;;;;;6.90;1.77;;;14.20;33.50;;;;;;5082253;28;20107;-74
2023/04/15 10:31:06;;;;;;;4.78;1.70;;;14.30;34.50;;;;;;5084120;28;20032;-73
2023/04/15 10:33:33;;;;;;;3.50;1.50;;;14.50;35.60;;;;;;5083398;28;20024;-75
2023/04/15 10:36:00;;;;;;;6.72;3.63;;;14.70;33.30;;;;;;5082449;28;20052;-75
2023/04/15 10:38:37;;;;;;;6.32;1.60;;;14.80;33.30;;;;;;5082655;28;20016;-75
2023/04/15 10:41:24;;;;;;;5.03;1.80;;;14.80;32.00;;;;;;5084125;28;20357;-74
2023/04/15 10:43:53;;;;;;;5.53;1.63;;;15.00;32.80;;;;;;5081097;28;20111;-75
2023/04/15 10:46:40;;;;;;;4.82;1.13;;;14.90;31.30;;;;;;5082244;28;20024;-75
2023/04/15 10:49:12;;;;;;;4.25;1.30;;;14.90;31.00;;;;;;5080144;28;20024;-74
2023/04/15 10:51:40;;;;;;;5.45;1.48;;;14.90;31.10;;;;;;5082041;28;20039;-74
2023/04/15 10:54:15;;;;;;;3.42;1.50;;;15.10;31.20;;;;;;5079709;28;20017;-75
2023/04/15 10:56:45;;;;;;;4.00;1.20;;;15.20;31.10;;;;;;5087803;28;20047;-75
2023/04/15 10:59:10;;;;;;;7.05;1.40;;;15.20;30.90;;;;;;5084442;28;20389;-74
2023/04/15 11:02:00;;;;;;;3.92;1.30;;;15.20;30.80;;;;;;5080304;28;20068;-74
2023/04/15 11:04:51;;;;;;;7.45;1.88;;;15.30;31.30;;;;;;5079626;28;20019;-74
2023/04/15 11:07:36;;;;;;;9.10;2.05;;;15.30;31.10;;;;;;5085988;28;20089;-76
2023/04/15 11:10:03;;;;;;;6.72;1.73;;;15.40;32.40;;;;;;5092847;28;20077;-75
2023/04/15 11:12:35;;;;;;;3.67;1.55;;;15.50;33.80;;;;;;5093725;28;20085;-75
2023/04/15 11:15:39;;;;;;;7.82;1.90;;;15.70;33.00;;;;;;5093025;28;20035;-75
2023/04/15 11:18:22;;;;;;;9.35;2.35;;;15.80;31.50;;;;;;5091524;28;20107;-75
2023/04/15 11:21:02;;;;;;;6.57;1.73;;;15.90;31.30;;;;;;5093649;28;20409;-73
2023/04/15 11:23:33;;;;;;;4.65;1.30;;;15.90;30.70;;;;;;5093829;28;20012;-74
2023/04/15 11:26:01;;;;;;;5.18;1.52;;;15.80;30.40;;;;;;5093771;28;20115;-75
2023/04/15 11:28:29;;;;;;;6.25;1.50;;;15.70;30.20;;;;;;5093991;28;20018;-74
2023/04/15 11:30:55;;;;;;;6.55;1.55;;;15.70;29.60;;;;;;5093904;28;20024;-74
2023/04/15 11:33:22;;;;;;;5.20;1.30;;;15.40;28.80;;;;;;5094113;28;20027;-75
2023/04/15 11:35:48;;;;;;;5.72;1.40;;;15.20;29.10;;;;;;5095501;28;20070;-72
2023/04/15 11:38:15;;;;;;;5.22;1.55;;;15.20;29.10;;;;;;5098612;28;20028;-73
2023/04/15 11:40:42;;;;;;;6.13;2.75;;;15.20;30.40;;;;;;5096969;28;20012;-73
2023/04/15 11:43:19;;;;;;;8.90;3.03;;;15.20;29.00;;;;;;5103339;28;20420;-73
2023/04/15 11:45:50;;;;;;;10.85;1.50;;;15.00;29.00;;;;;;5102721;28;20044;-73
2023/04/15 11:48:16;;;;;;;6.32;1.27;;;15.10;27.70;;;;;;5102657;28;20136;-73
2023/04/15 11:50:41;;;;;;;3.35;1.13;;;15.00;26.10;;;;;;5101032;28;20040;-72
2023/04/15 11:53:11;;;;;;;2.10;0.75;;;15.00;27.20;;;;;;5093372;28;20016;-72
2023/04/15 11:55:45;;;;;;;6.53;1.08;;;14.90;27.20;;;;;;5093393;28;20039;-73
2023/04/15 11:58:23;;;;;;;4.22;1.30;;;14.80;27.10;;;;;;5093299;28;20475;-73
2023/04/15 12:00:49;;;;;;;4.60;1.30;;;14.90;27.40;;;;;;5093161;28;20038;-72
2023/04/15 12:03:21;;;;;;;7.13;1.75;;;14.90;27.30;;;;;;5093267;28;20099;-73
2023/04/15 12:06:12;;;;;;;3.95;0.90;;;15.10;26.90;;;;;;5092942;28;20483;-72
2023/04/15 12:08:55;;;;;;;4.65;1.25;;;15.40;27.20;;;;;;5093178;28;20035;-74
2023/04/15 12:11:46;;;;;;;5.38;1.35;;;15.70;26.90;;;;;;5092856;28;20036;-73
2023/04/15 12:14:25;;;;;;;6.95;2.17;;;15.70;27.40;;;;;;5092881;28;20020;-74
2023/04/15 12:16:54;;;;;;;5.10;1.83;;;15.60;27.10;;;;;;5092953;28;20043;-73
2023/04/15 12:19:26;;;;;;;6.40;1.92;;;15.60;27.60;;;;;;5092787;28;20052;-73
2023/04/15 12:21:58;;;;;;;7.50;1.58;;;15.40;27.80;;;;;;5092480;28;20020;-76
2023/04/15 12:24:23;;;;;;;8.98;1.67;;;15.40;28.50;;;;;;5093035;28;20468;-78
2023/04/15 12:26:55;;;;;;;3.25;1.10;;;15.40;29.20;;;;;;5092838;28;20034;-77
2023/04/15 12:29:26;;;;;;;5.50;1.23;;;15.50;29.60;;;;;;5093030;28;20028;-80
2023/04/15 12:31:57;;;;;;;3.70;1.60;;;15.40;29.30;;;;;;5092795;28;20020;-77
2023/04/15 12:34:31;;;;;;;6.82;2.03;;;15.30;28.90;;;;;;5092306;28;20024;-77
2023/04/15 12:36:57;;;;;;;5.65;1.52;;;15.40;30.00;;;;;;5091261;28;20056;-76
2023/04/15 12:39:24;;;;;;;5.28;2.17;;;15.20;30.70;;;;;;5092521;28;20436;-76
2023/04/15 12:41:51;;;;;;;8.02;1.73;;;14.90;30.60;;;;;;5092626;28;20020;-76
2023/04/15 12:44:16;;;;;;;6.05;1.90;;;15.00;31.30;;;;;;5092358;28;20024;-76
2023/04/15 12:46:42;;;;;;;4.60;1.98;;;14.90;31.70;;;;;;5092128;28;20161;-76
2023/04/15 12:49:08;;;;;;;7.78;3.03;;;14.90;32.20;;;;;;5092340;28;20302;-77
2023/04/15 12:51:33;;;;;;;10.30;4.90;;;14.70;32.30;;;;;;5092359;28;20111;-77